Terminal Aerodrome Forecast
Issued by NWS

Home | Current Version | Previous Version | Graphics & Text | Print | Product List | Glossary On
Versions: 1 2 3 4 5 6 7 8 9 10 11 12 13 14 15 16 17 18 19
000
FTUS43 KICT 251529 AAA
TAFCNU
TAF AMD
KCNU 251529Z 2515/2612 33008KT 6SM -RA OVC020
      TEMPO 2515/2518 4SM SHRA OVC008
     FM260000 34010KT P6SM VCSH OVC020
     FM260400 34008KT P6SM BKN020
     FM260800 34006KT P6SM SCT025 BKN120=

USA.gov is the U.S. government's official web portal to all federal, state and local government web resources and services.